sensor_id;sensor_type;location;lat;lon;timestamp;pressure;altitude;pressure_sealevel;temperature;humidity
13080;BME280;6606;49.154;9.280;2023-02-12T00:02:00;101708.88;;;6.27;100.00
13080;BME280;6606;49.154;9.280;2023-02-12T00:04:41;101711.50;;;6.27;100.00
13080;BME280;6606;49.154;9.280;2023-02-12T00:07:23;101730.81;;;6.25;100.00
13080;BME280;6606;49.154;9.280;2023-02-12T00:10:07;101715.00;;;6.26;100.00
13080;BME280;6606;49.154;9.280;2023-02-12T00:12:49;101720.28;;;6.28;100.00
13080;BME280;6606;49.154;9.280;2023-02-12T00:15:30;101714.97;;;6.22;100.00
13080;BME280;6606;49.154;9.280;2023-02-12T00:18:13;101721.13;;;6.21;100.00
13080;BME280;6606;49.154;9.280;2023-02-12T00:20:58;101717.63;;;6.23;100.00
13080;BME280;6606;49.154;9.280;2023-02-12T00:23:40;101723.78;;;6.14;100.00
13080;BME280;6606;49.154;9.280;2023-02-12T00:26:23;101717.63;;;6.12;100.00
13080;BME280;6606;49.154;9.280;2023-02-12T00:29:06;101715.88;;;6.21;100.00
13080;BME280;6606;49.154;9.280;2023-02-12T00:31:48;101714.13;;;6.29;100.00
13080;BME280;6606;49.154;9.280;2023-02-12T00:34:29;101709.75;;;6.35;100.00
13080;BME280;6606;49.154;9.280;2023-02-12T00:37:11;101713.25;;;6.39;100.00
13080;BME280;6606;49.154;9.280;2023-02-12T00:39:53;101715.00;;;6.37;100.00
13080;BME280;6606;49.154;9.280;2023-02-12T00:42:36;101720.28;;;6.42;100.00
13080;BME280;6606;49.154;9.280;2023-02-12T00:45:18;101718.50;;;6.39;100.00
13080;BME280;6606;49.154;9.280;2023-02-12T00:47:59;101721.13;;;6.34;100.00
13080;BME280;6606;49.154;9.280;2023-02-12T00:50:43;101708.88;;;6.38;100.00
13080;BME280;6606;49.154;9.280;2023-02-12T00:53:25;101705.34;;;6.41;100.00
13080;BME280;6606;49.154;9.280;2023-02-12T00:56:08;101705.34;;;6.39;100.00
13080;BME280;6606;49.154;9.280;2023-02-12T00:58:51;101706.22;;;6.41;100.00
13080;BME280;6606;49.154;9.280;2023-02-12T01:01:33;101705.34;;;6.41;100.00
13080;BME280;6606;49.154;9.280;2023-02-12T01:04:17;101706.22;;;6.39;100.00
13080;BME280;6606;49.154;9.280;2023-02-12T01:06:58;101715.00;;;6.40;100.00
13080;BME280;6606;49.154;9.280;2023-02-12T01:09:40;101710.63;;;6.41;100.00
13080;BME280;6606;49.154;9.280;2023-02-12T01:12:22;101715.88;;;6.41;100.00
13080;BME280;6606;49.154;9.280;2023-02-12T01:15:06;101717.63;;;6.38;100.00
13080;BME280;6606;49.154;9.280;2023-02-12T01:17:50;101716.78;;;6.38;100.00
13080;BME280;6606;49.154;9.280;2023-02-12T01:20:32;101719.38;;;6.36;100.00
13080;BME280;6606;49.154;9.280;2023-02-12T01:23:14;101711.47;;;6.32;100.00
13080;BME280;6606;49.154;9.280;2023-02-12T01:25:57;101714.09;;;6.24;100.00
13080;BME280;6606;49.154;9.280;2023-02-12T01:28:40;101720.25;;;6.22;100.00
13080;BME280;6606;49.154;9.280;2023-02-12T01:31:25;101714.09;;;6.13;100.00
13080;BME280;6606;49.154;9.280;2023-02-12T01:34:09;101715.84;;;6.19;100.00
13080;BME280;6606;49.154;9.280;2023-02-12T01:36:52;101718.50;;;6.18;100.00
13080;BME280;6606;49.154;9.280;2023-02-12T01:39:34;101721.16;;;6.25;100.00
13080;BME280;6606;49.154;9.280;2023-02-12T01:42:16;101722.03;;;6.26;100.00
13080;BME280;6606;49.154;9.280;2023-02-12T01:45:42;101726.41;;;6.25;100.00
13080;BME280;6606;49.154;9.280;2023-02-12T01:48:28;101713.25;;;6.21;100.00
13080;BME280;6606;49.154;9.280;2023-02-12T01:51:16;101704.44;;;6.15;100.00
13080;BME280;6606;49.154;9.280;2023-02-12T01:54:02;101705.31;;;6.13;100.00
13080;BME280;6606;49.154;9.280;2023-02-12T01:56:45;101702.69;;;6.08;100.00
13080;BME280;6606;49.154;9.280;2023-02-12T01:59:28;101700.06;;;6.13;100.00
13080;BME280;6606;49.154;9.280;2023-02-12T02:02:10;101701.84;;;6.14;100.00
13080;BME280;6606;49.154;9.280;2023-02-12T02:04:56;101700.94;;;6.13;100.00
13080;BME280;6606;49.154;9.280;2023-02-12T02:07:42;101719.38;;;6.15;100.00
13080;BME280;6606;49.154;9.280;2023-02-12T02:10:24;101706.19;;;6.13;100.00
13080;BME280;6606;49.154;9.280;2023-02-12T02:13:08;101702.72;;;6.14;100.00
13080;BME280;6606;49.154;9.280;2023-02-12T02:16:14;101706.19;;;6.10;100.00
13080;BME280;6606;49.154;9.280;2023-02-12T02:19:02;101705.34;;;6.11;100.00
13080;BME280;6606;49.154;9.280;2023-02-12T02:22:03;101693.03;;;6.06;100.00
13080;BME280;6606;49.154;9.280;2023-02-12T02:25:13;101688.63;;;6.03;100.00
13080;BME280;6606;49.154;9.280;2023-02-12T02:28:09;101695.66;;;6.06;100.00
13080;BME280;6606;49.154;9.280;2023-02-12T02:30:56;101693.03;;;6.06;100.00
13080;BME280;6606;49.154;9.280;2023-02-12T02:33:46;101696.53;;;6.11;100.00
13080;BME280;6606;49.154;9.280;2023-02-12T02:36:36;101704.44;;;6.15;100.00
13080;BME280;6606;49.154;9.280;2023-02-12T02:39:25;101698.34;;;6.20;100.00
13080;BME280;6606;49.154;9.280;2023-02-12T02:42:13;101686.03;;;6.14;100.00
13080;BME280;6606;49.154;9.280;2023-02-12T02:44:59;101685.16;;;6.10;100.00
13080;BME280;6606;49.154;9.280;2023-02-12T02:47:47;101682.53;;;6.01;100.00
13080;BME280;6606;49.154;9.280;2023-02-12T02:50:33;101692.09;;;5.90;100.00
13080;BME280;6606;49.154;9.280;2023-02-12T02:53:19;101686.88;;;5.93;100.00
13080;BME280;6606;49.154;9.280;2023-02-12T02:56:05;101688.63;;;6.00;100.00
13080;BME280;6606;49.154;9.280;2023-02-12T02:58:51;101693.91;;;6.03;100.00
13080;BME280;6606;49.154;9.280;2023-02-12T03:01:37;101695.69;;;6.04;100.00
13080;BME280;6606;49.154;9.280;2023-02-12T03:04:26;101697.41;;;6.05;100.00
13080;BME280;6606;49.154;9.280;2023-02-12T03:07:15;101710.56;;;5.94;100.00
13080;BME280;6606;49.154;9.280;2023-02-12T03:10:00;101713.19;;;5.93;100.00
13080;BME280;6606;49.154;9.280;2023-02-12T03:12:46;101707.94;;;5.99;100.00
13080;BME280;6606;49.154;9.280;2023-02-12T03:15:34;101713.22;;;5.99;100.00
13080;BME280;6606;49.154;9.280;2023-02-12T03:18:20;101706.19;;;6.03;100.00
13080;BME280;6606;49.154;9.280;2023-02-12T03:21:09;101700.91;;;5.95;100.00
13080;BME280;6606;49.154;9.280;2023-02-12T03:23:56;101707.88;;;5.76;100.00
13080;BME280;6606;49.154;9.280;2023-02-12T03:26:46;101704.41;;;5.88;100.00
13080;BME280;6606;49.154;9.280;2023-02-12T03:29:28;101699.13;;;5.91;100.00
13080;BME280;6606;49.154;9.280;2023-02-12T03:32:22;101698.31;;;5.98;100.00
13080;BME280;6606;49.154;9.280;2023-02-12T03:35:09;101706.22;;;5.98;100.00
13080;BME280;6606;49.154;9.280;2023-02-12T03:37:59;101701.81;;;5.99;100.00
13080;BME280;6606;49.154;9.280;2023-02-12T03:40:46;101712.34;;;5.96;100.00
13080;BME280;6606;49.154;9.280;2023-02-12T03:43:35;101701.81;;;5.97;100.00
13080;BME280;6606;49.154;9.280;2023-02-12T03:46:24;101700.94;;;5.98;100.00
13080;BME280;6606;49.154;9.280;2023-02-12T03:49:15;101713.22;;;5.99;100.00
13080;BME280;6606;49.154;9.280;2023-02-12T03:52:02;101710.59;;;5.99;100.00
13080;BME280;6606;49.154;9.280;2023-02-12T03:54:45;101717.59;;;5.97;100.00
13080;BME280;6606;49.154;9.280;2023-02-12T03:57:30;101711.38;;;5.87;100.00
13080;BME280;6606;49.154;9.280;2023-02-12T04:00:17;101707.00;;;5.83;100.00
13080;BME280;6606;49.154;9.280;2023-02-12T04:03:00;101714.03;;;5.84;100.00
13080;BME280;6606;49.154;9.280;2023-02-12T04:05:42;101715.78;;;5.87;100.00
13080;BME280;6606;49.154;9.280;2023-02-12T04:08:24;101716.72;;;5.95;100.00
13080;BME280;6606;49.154;9.280;2023-02-12T04:11:14;101723.75;;;6.02;100.00
13080;BME280;6606;49.154;9.280;2023-02-12T04:14:10;101718.47;;;6.05;100.00
13080;BME280;6606;49.154;9.280;2023-02-12T04:16:59;101715.00;;;6.06;100.00
13080;BME280;6606;49.154;9.280;2023-02-12T04:19:49;101721.13;;;5.99;100.00
13080;BME280;6606;49.154;9.280;2023-02-12T04:22:44;101721.97;;;5.95;100.00
13080;BME280;6606;49.154;9.280;2023-02-12T04:25:39;101721.97;;;5.95;100.00
13080;BME280;6606;49.154;9.280;2023-02-12T04:28:29;101731.63;;;5.99;100.00
13080;BME280;6606;49.154;9.280;2023-02-12T04:31:21;101724.63;;;5.98;100.00
13080;BME280;6606;49.154;9.280;2023-02-12T04:34:08;101729.91;;;5.98;100.00
13080;BME280;6606;49.154;9.280;2023-02-12T04:36:55;101734.22;;;5.90;100.00
13080;BME280;6606;49.154;9.280;2023-02-12T04:39:40;101739.47;;;5.87;100.00
13080;BME280;6606;49.154;9.280;2023-02-12T04:42:22;101733.34;;;5.91;100.00
13080;BME280;6606;49.154;9.280;2023-02-12T04:45:08;101744.72;;;5.84;100.00
13080;BME280;6606;49.154;9.280;2023-02-12T04:47:51;101738.56;;;5.82;100.00
13080;BME280;6606;49.154;9.280;2023-02-12T04:50:38;101733.28;;;5.68;100.00
13080;BME280;6606;49.154;9.280;2023-02-12T04:53:20;101741.16;;;5.68;100.00
13080;BME280;6606;49.154;9.280;2023-02-12T04:56:02;101734.16;;;5.65;100.00
13080;BME280;6606;49.154;9.280;2023-02-12T04:58:44;101735.88;;;5.63;100.00
13080;BME280;6606;49.154;9.280;2023-02-12T05:01:27;101722.72;;;5.54;100.00
13080;BME280;6606;49.154;9.280;2023-02-12T05:04:11;101727.06;;;5.47;100.00
13080;BME280;6606;49.154;9.280;2023-02-12T05:06:53;101728.78;;;5.38;100.00
13080;BME280;6606;49.154;9.280;2023-02-12T05:09:34;101734.00;;;5.25;100.00
13080;BME280;6606;49.154;9.280;2023-02-12T05:12:16;101733.09;;;5.20;100.00
13080;BME280;6606;49.154;9.280;2023-02-12T05:14:58;101721.66;;;5.15;100.00
13080;BME280;6606;49.154;9.280;2023-02-12T05:17:41;101727.78;;;5.16;100.00
13080;BME280;6606;49.154;9.280;2023-02-12T05:20:24;101732.19;;;5.18;100.00
13080;BME280;6606;49.154;9.280;2023-02-12T05:23:05;101737.50;;;5.21;100.00
13080;BME280;6606;49.154;9.280;2023-02-12T05:25:47;101733.16;;;5.33;100.00
13080;BME280;6606;49.154;9.280;2023-02-12T05:28:29;101734.91;;;5.35;100.00
13080;BME280;6606;49.154;9.280;2023-02-12T05:31:13;101741.94;;;5.41;100.00
13080;BME280;6606;49.154;9.280;2023-02-12T05:33:57;101735.81;;;5.39;100.00
13080;BME280;6606;49.154;9.280;2023-02-12T05:36:39;101731.41;;;5.42;100.00
13080;BME280;6606;49.154;9.280;2023-02-12T05:39:21;101739.31;;;5.44;100.00
13080;BME280;6606;49.154;9.280;2023-02-12T05:42:03;101734.94;;;5.47;100.00
13080;BME280;6606;49.154;9.280;2023-02-12T05:44:44;101745.50;;;5.49;100.00
13080;BME280;6606;49.154;9.280;2023-02-12T05:47:26;101748.13;;;5.49;100.00
13080;BME280;6606;49.154;9.280;2023-02-12T05:50:10;101739.38;;;5.51;100.00
13080;BME280;6606;49.154;9.280;2023-02-12T05:52:51;101735.00;;;5.50;100.00
13080;BME280;6606;49.154;9.280;2023-02-12T05:55:33;101745.44;;;5.40;100.00
13080;BME280;6606;49.154;9.280;2023-02-12T05:58:15;101746.34;;;5.45;100.00
13080;BME280;6606;49.154;9.280;2023-02-12T06:00:56;101744.56;;;5.35;100.00
13080;BME280;6606;49.154;9.280;2023-02-12T06:03:38;101746.31;;;5.39;100.00
13080;BME280;6606;49.154;9.280;2023-02-12T06:06:23;101748.09;;;5.43;100.00
13080;BME280;6606;49.154;9.280;2023-02-12T06:09:05;101741.06;;;5.42;100.00
13080;BME280;6606;49.154;9.280;2023-02-12T06:11:47;101730.56;;;5.40;100.00
13080;BME280;6606;49.154;9.280;2023-02-12T06:14:29;101735.78;;;5.36;100.00
13080;BME280;6606;49.154;9.280;2023-02-12T06:17:10;101748.06;;;5.40;100.00
13080;BME280;6606;49.154;9.280;2023-02-12T06:19:52;101742.84;;;5.46;100.00
13080;BME280;6606;49.154;9.280;2023-02-12T06:22:35;101756.03;;;5.58;100.00
13080;BME280;6606;49.154;9.280;2023-02-12T06:25:17;101744.66;;;5.62;100.00
13080;BME280;6606;49.154;9.280;2023-02-12T06:27:59;101751.69;;;5.62;100.00
13080;BME280;6606;49.154;9.280;2023-02-12T06:30:41;101753.44;;;5.63;100.00
13080;BME280;6606;49.154;9.280;2023-02-12T06:33:23;101756.09;;;5.70;100.00
13080;BME280;6606;49.154;9.280;2023-02-12T06:36:05;101756.13;;;5.75;100.00
13080;BME280;6606;49.154;9.280;2023-02-12T06:38:49;101756.09;;;5.72;100.00
13080;BME280;6606;49.154;9.280;2023-02-12T06:41:31;101761.38;;;5.78;100.00
13080;BME280;6606;49.154;9.280;2023-02-12T06:44:13;101762.25;;;5.79;100.00
13080;BME280;6606;49.154;9.280;2023-02-12T06:46:55;101764.94;;;5.85;100.00
13080;BME280;6606;49.154;9.280;2023-02-12T06:49:38;101760.47;;;5.71;100.00
13080;BME280;6606;49.154;9.280;2023-02-12T06:52:20;101766.63;;;5.77;100.00
13080;BME280;6606;49.154;9.280;2023-02-12T06:55:03;101767.50;;;5.79;100.00
13080;BME280;6606;49.154;9.280;2023-02-12T06:57:45;101764.91;;;5.83;100.00
13080;BME280;6606;49.154;9.280;2023-02-12T07:00:27;101766.66;;;5.84;100.00
13080;BME280;6606;49.154;9.280;2023-02-12T07:03:09;101773.72;;;5.93;100.00
13080;BME280;6606;49.154;9.280;2023-02-12T07:05:50;101781.56;;;5.84;100.00
13080;BME280;6606;49.154;9.280;2023-02-12T07:08:32;101774.56;;;5.83;100.00
13080;BME280;6606;49.154;9.280;2023-02-12T07:11:15;101777.28;;;5.98;100.00
13080;BME280;6606;49.154;9.280;2023-02-12T07:13:57;101776.41;;;6.05;100.00
13080;BME280;6606;49.154;9.280;2023-02-12T07:16:39;101783.44;;;6.09;100.00
13080;BME280;6606;49.154;9.280;2023-02-12T07:19:21;101776.44;;;6.21;100.00
13080;BME280;6606;49.154;9.280;2023-02-12T07:22:03;101784.34;;;6.21;100.00
13080;BME280;6606;49.154;9.280;2023-02-12T07:24:45;101774.69;;;6.29;100.00
13080;BME280;6606;49.154;9.280;2023-02-12T07:27:28;101781.69;;;6.21;100.00
13080;BME280;6606;49.154;9.280;2023-02-12T07:30:10;101774.66;;;6.15;100.00
13080;BME280;6606;49.154;9.280;2023-02-12T07:32:52;101780.81;;;6.26;100.00
13080;BME280;6606;49.154;9.280;2023-02-12T07:35:34;101782.59;;;6.27;100.00
13080;BME280;6606;49.154;9.280;2023-02-12T07:38:15;101781.72;;;6.48;100.00
13080;BME280;6606;49.154;9.280;2023-02-12T07:41:06;101786.13;;;6.60;100.00
13080;BME280;6606;49.154;9.280;2023-02-12T07:43:53;101783.50;;;6.65;100.00
13080;BME280;6606;49.154;9.280;2023-02-12T07:46:37;101795.81;;;6.78;100.00
13080;BME280;6606;49.154;9.280;2023-02-12T07:49:20;101790.53;;;6.78;100.00
13080;BME280;6606;49.154;9.280;2023-02-12T07:52:02;101784.38;;;6.83;100.00
13080;BME280;6606;49.154;9.280;2023-02-12T07:54:44;101783.50;;;6.86;100.00
13080;BME280;6606;49.154;9.280;2023-02-12T07:57:25;101789.66;;;6.77;100.00
13080;BME280;6606;49.154;9.280;2023-02-12T08:00:10;101789.63;;;7.00;100.00
13080;BME280;6606;49.154;9.280;2023-02-12T08:02:54;101790.50;;;6.99;100.00
13080;BME280;6606;49.154;9.280;2023-02-12T08:05:36;101797.53;;;6.57;100.00
13080;BME280;6606;49.154;9.280;2023-02-12T08:08:17;101801.06;;;6.87;100.00
13080;BME280;6606;49.154;9.280;2023-02-12T08:10:59;101799.28;;;6.77;100.00
13080;BME280;6606;49.154;9.280;2023-02-12T08:13:41;101808.97;;;6.38;100.00
13080;BME280;6606;49.154;9.280;2023-02-12T08:16:26;101811.59;;;6.47;100.00
13080;BME280;6606;49.154;9.280;2023-02-12T08:19:08;101794.03;;;6.78;100.00
13080;BME280;6606;49.154;9.280;2023-02-12T08:21:51;101801.94;;;6.85;100.00
13080;BME280;6606;49.154;9.280;2023-02-12T08:24:33;101792.28;;;6.88;100.00
13080;BME280;6606;49.154;9.280;2023-02-12T08:27:15;101801.03;;;7.02;100.00
13080;BME280;6606;49.154;9.280;2023-02-12T08:29:56;101796.63;;;7.23;100.00
13080;BME280;6606;49.154;9.280;2023-02-12T08:32:39;101797.47;;;7.25;100.00
13080;BME280;6606;49.154;9.280;2023-02-12T08:35:21;101798.34;;;7.39;100.00
13080;BME280;6606;49.154;9.280;2023-02-12T08:38:03;101802.72;;;7.40;100.00
13080;BME280;6606;49.154;9.280;2023-02-12T08:40:44;101803.53;;;7.59;100.00
13080;BME280;6606;49.154;9.280;2023-02-12T08:43:26;101807.97;;;7.54;100.00
13080;BME280;6606;49.154;9.280;2023-02-12T08:46:09;101805.31;;;7.57;100.00
13080;BME280;6606;49.154;9.280;2023-02-12T08:48:54;101799.91;;;7.85;100.00
13080;BME280;6606;49.154;9.280;2023-02-12T08:51:37;101800.75;;;7.93;100.00
13080;BME280;6606;49.154;9.280;2023-02-12T08:54:21;101798.09;;;7.99;100.00
13080;BME280;6606;49.154;9.280;2023-02-12T08:57:03;101807.91;;;7.62;100.00
13080;BME280;6606;49.154;9.280;2023-02-12T08:59:47;101811.38;;;7.79;100.00
13080;BME280;6606;49.154;9.280;2023-02-12T09:02:29;101806.13;;;7.76;100.00
13080;BME280;6606;49.154;9.280;2023-02-12T09:05:12;101806.97;;;7.86;100.00
13080;BME280;6606;49.154;9.280;2023-02-12T09:07:54;101816.63;;;7.85;100.00
13080;BME280;6606;49.154;9.280;2023-02-12T09:10:38;101804.28;;;7.90;100.00
13080;BME280;6606;49.154;9.280;2023-02-12T09:13:20;101808.78;;;7.71;100.00
13080;BME280;6606;49.154;9.280;2023-02-12T09:16:03;101798.97;;;7.93;100.00
13080;BME280;6606;49.154;9.280;2023-02-12T09:18:45;101807.72;;;8.12;100.00
13080;BME280;6606;49.154;9.280;2023-02-12T09:21:29;101804.22;;;8.03;100.00
13080;BME280;6606;49.154;9.280;2023-02-12T09:24:10;101807.81;;;7.92;100.00
13080;BME280;6606;49.154;9.280;2023-02-12T09:26:52;101816.34;;;8.37;100.00
13080;BME280;6606;49.154;9.280;2023-02-12T09:29:34;101797.78;;;8.51;100.00
13080;BME280;6606;49.154;9.280;2023-02-12T09:32:16;101797.72;;;8.59;100.00
13080;BME280;6606;49.154;9.280;2023-02-12T09:34:57;101802.16;;;8.57;100.00
13080;BME280;6606;49.154;9.280;2023-02-12T09:37:40;101801.19;;;8.69;100.00
13080;BME280;6606;49.154;9.280;2023-02-12T09:40:27;101800.38;;;8.59;100.00
13080;BME280;6606;49.154;9.280;2023-02-12T09:43:17;101804.63;;;8.75;100.00
13080;BME280;6606;49.154;9.280;2023-02-12T09:46:04;101810.88;;;8.65;100.00
13080;BME280;6606;49.154;9.280;2023-02-12T09:48:56;101805.53;;;8.74;100.00
13080;BME280;6606;49.154;9.280;2023-02-12T09:51:43;101798.66;;;8.52;100.00
13080;BME280;6606;49.154;9.280;2023-02-12T09:54:36;101802.03;;;8.74;100.00
13080;BME280;6606;49.154;9.280;2023-02-12T09:57:23;101799.53;;;8.54;100.00
13080;BME280;6606;49.154;9.280;2023-02-12T10:00:10;101803.63;;;8.89;100.00
13080;BME280;6606;49.154;9.280;2023-02-12T10:02:55;101803.59;;;8.95;100.00
13080;BME280;6606;49.154;9.280;2023-02-12T10:05:40;101809.66;;;9.08;100.00
13080;BME280;6606;49.154;9.280;2023-02-12T10:08:33;101805.03;;;9.30;100.00
13080;BME280;6606;49.154;9.280;2023-02-12T10:11:34;101806.94;;;9.12;100.00
13080;BME280;6606;49.154;9.280;2023-02-12T10:14:45;101799.00;;;9.14;100.00
13080;BME280;6606;49.154;9.280;2023-02-12T10:17:36;101803.25;;;9.32;100.00
13080;BME280;6606;49.154;9.280;2023-02-12T10:20:50;101805.06;;;9.27;100.00
13080;BME280;6606;49.154;9.280;2023-02-12T10:23:53;101802.22;;;9.42;100.00
13080;BME280;6606;49.154;9.280;2023-02-12T10:26:42;101807.34;;;9.59;100.00
13080;BME280;6606;49.154;9.280;2023-02-12T10:29:31;101801.00;;;9.71;100.00
13080;BME280;6606;49.154;9.280;2023-02-12T10:32:22;101802.19;;;9.48;100.00
13080;BME280;6606;49.154;9.280;2023-02-12T10:35:15;101806.56;;;9.49;100.00
13080;BME280;6606;49.154;9.280;2023-02-12T10:37:59;101806.53;;;9.52;100.00
13080;BME280;6606;49.154;9.280;2023-02-12T10:40:44;101802.84;;;9.65;100.00
13080;BME280;6606;49.154;9.280;2023-02-12T10:43:29;101802.50;;;9.93;100.00
13080;BME280;6606;49.154;9.280;2023-02-12T10:46:14;101802.31;;;10.05;100.00
13080;BME280;6606;49.154;9.280;2023-02-12T10:48:58;101801.50;;;10.02;100.00
13080;BME280;6606;49.154;9.280;2023-02-12T10:52:01;101806.31;;;9.71;100.00
13080;BME280;6606;49.154;9.280;2023-02-12T10:54:46;101797.00;;;10.08;100.00
13080;BME280;6606;49.154;9.280;2023-02-12T10:57:29;101792.38;;;10.21;100.00
13080;BME280;6606;49.154;9.280;2023-02-12T11:00:23;101792.63;;;10.06;100.00
13080;BME280;6606;49.154;9.280;2023-02-12T11:03:19;101784.84;;;9.92;100.00
13080;BME280;6606;49.154;9.280;2023-02-12T11:06:13;101780.03;;;10.20;100.00
13080;BME280;6606;49.154;9.280;2023-02-12T11:08:56;101761.47;;;10.22;100.00
13080;BME280;6606;49.154;9.280;2023-02-12T11:11:38;101774.13;;;10.01;100.00
13080;BME280;6606;49.154;9.280;2023-02-12T11:14:23;101764.69;;;10.45;100.00
13080;BME280;6606;49.154;9.280;2023-02-12T11:17:21;101766.41;;;10.46;100.00
13080;BME280;6606;49.154;9.280;2023-02-12T11:20:18;101765.25;;;10.64;100.00
13080;BME280;6606;49.154;9.280;2023-02-12T11:23:02;101767.06;;;10.61;100.00
13080;BME280;6606;49.154;9.280;2023-02-12T11:25:55;101768.91;;;10.55;100.00
13080;BME280;6606;49.154;9.280;2023-02-12T11:28:37;101760.69;;;10.72;100.00
13080;BME280;6606;49.154;9.280;2023-02-12T11:31:21;101759.66;;;10.81;100.00
13080;BME280;6606;49.154;9.280;2023-02-12T11:34:12;101757.16;;;10.72;100.00
13080;BME280;6606;49.154;9.280;2023-02-12T11:36:56;101757.06;;;10.78;100.00
13080;BME280;6606;49.154;9.280;2023-02-12T11:39:38;101757.78;;;10.88;100.00
13080;BME280;6606;49.154;9.280;2023-02-12T11:42:23;101751.69;;;10.81;100.00
13080;BME280;6606;49.154;9.280;2023-02-12T11:45:06;101736.66;;;11.28;100.00
13080;BME280;6606;49.154;9.280;2023-02-12T11:47:57;101740.75;;;11.44;100.00
13080;BME280;6606;49.154;9.280;2023-02-12T11:50:45;101737.25;;;11.42;100.00
13080;BME280;6606;49.154;9.280;2023-02-12T11:53:30;101739.47;;;11.19;100.00
13080;BME280;6606;49.154;9.280;2023-02-12T11:56:13;101739.94;;;10.94;100.00
13080;BME280;6606;49.154;9.280;2023-02-12T11:59:10;101728.25;;;11.05;100.00
13080;BME280;6606;49.154;9.280;2023-02-12T12:01:53;101722.75;;;11.15;100.00
13080;BME280;6606;49.154;9.280;2023-02-12T12:04:38;101732.50;;;11.15;100.00
13080;BME280;6606;49.154;9.280;2023-02-12T12:07:26;101733.25;;;10.73;100.00
13080;BME280;6606;49.154;9.280;2023-02-12T12:10:14;101724.25;;;11.27;100.00
13080;BME280;6606;49.154;9.280;2023-02-12T12:13:03;101727.91;;;11.23;100.00
13080;BME280;6606;49.154;9.280;2023-02-12T12:15:47;101726.88;;;11.30;100.00
13080;BME280;6606;49.154;9.280;2023-02-12T12:18:51;101721.56;;;11.30;100.00
13080;BME280;6606;49.154;9.280;2023-02-12T12:21:57;101713.69;;;11.68;100.00
13080;BME280;6606;49.154;9.280;2023-02-12T12:24:48;101714.81;;;11.56;100.00
13080;BME280;6606;49.154;9.280;2023-02-12T12:27:36;101702.69;;;11.86;100.00
13080;BME280;6606;49.154;9.280;2023-02-12T12:30:59;101709.50;;;11.56;100.00
13080;BME280;6606;49.154;9.280;2023-02-12T12:33:45;101710.09;;;11.28;100.00
13080;BME280;6606;49.154;9.280;2023-02-12T12:36:59;101717.22;;;11.26;100.00
13080;BME280;6606;49.154;9.280;2023-02-12T12:39:54;101715.66;;;10.68;100.00
13080;BME280;6606;49.154;9.280;2023-02-12T12:43:01;101709.69;;;11.05;100.00
13080;BME280;6606;49.154;9.280;2023-02-12T12:46:10;101700.44;;;11.24;100.00
13080;BME280;6606;49.154;9.280;2023-02-12T12:49:15;101694.31;;;11.22;100.00
13080;BME280;6606;49.154;9.280;2023-02-12T12:52:20;101695.84;;;11.32;100.00
13080;BME280;6606;49.154;9.280;2023-02-12T12:55:22;101684.94;;;11.03;100.00
13080;BME280;6606;49.154;9.280;2023-02-12T12:58:12;101682.56;;;10.90;100.00
13080;BME280;6606;49.154;9.280;2023-02-12T13:01:09;101681.03;;;10.77;100.00
13080;BME280;6606;49.154;9.280;2023-02-12T13:04:15;101677.59;;;10.72;100.00
13080;BME280;6606;49.154;9.280;2023-02-12T13:07:18;101673.22;;;10.69;100.00
13080;BME280;6606;49.154;9.280;2023-02-12T13:10:18;101680.72;;;10.92;100.00
13080;BME280;6606;49.154;9.280;2023-02-12T13:13:19;101666.31;;;11.48;100.00
13080;BME280;6606;49.154;9.280;2023-02-12T13:20:10;101662.22;;;11.72;100.00
13080;BME280;6606;49.154;9.280;2023-02-12T13:22:59;101663.09;;;11.72;100.00
13080;BME280;6606;49.154;9.280;2023-02-12T13:25:51;101657.06;;;11.65;100.00
13080;BME280;6606;49.154;9.280;2023-02-12T13:28:39;101646.84;;;11.87;100.00
13080;BME280;6606;49.154;9.280;2023-02-12T13:31:26;101645.88;;;11.92;100.00
13080;BME280;6606;49.154;9.280;2023-02-12T13:34:13;101650.75;;;12.08;100.00
13080;BME280;6606;49.154;9.280;2023-02-12T13:36:56;101637.25;;;11.80;100.00
13080;BME280;6606;49.154;9.280;2023-02-12T13:39:44;101644.06;;;11.94;100.00
13080;BME280;6606;49.154;9.280;2023-02-12T13:42:38;101639.00;;;11.80;100.00
13080;BME280;6606;49.154;9.280;2023-02-12T13:45:33;101636.53;;;12.11;100.00
13080;BME280;6606;49.154;9.280;2023-02-12T13:48:34;101632.00;;;11.77;100.00
13080;BME280;6606;49.154;9.280;2023-02-12T13:51:28;101637.28;;;11.79;100.00
13080;BME280;6606;49.154;9.280;2023-02-12T13:54:24;101636.91;;;11.96;100.00
13080;BME280;6606;49.154;9.280;2023-02-12T13:57:12;101626.81;;;12.10;100.00
13080;BME280;6606;49.154;9.280;2023-02-12T13:59:56;101633.34;;;11.97;100.00
13080;BME280;6606;49.154;9.280;2023-02-12T14:02:42;101625.78;;;11.78;100.00
13080;BME280;6606;49.154;9.280;2023-02-12T14:05:27;101628.34;;;12.19;100.00
13080;BME280;6606;49.154;9.280;2023-02-12T14:08:29;101616.66;;;12.26;100.00
13080;BME280;6606;49.154;9.280;2023-02-12T14:11:18;101612.59;;;12.11;100.00
13080;BME280;6606;49.154;9.280;2023-02-12T14:14:02;101618.53;;;11.85;100.00
13080;BME280;6606;49.154;9.280;2023-02-12T14:16:46;101616.09;;;12.13;100.00
13080;BME280;6606;49.154;9.280;2023-02-12T14:19:55;101616.59;;;12.27;100.00
13080;BME280;6606;49.154;9.280;2023-02-12T14:22:59;101622.06;;;12.23;100.00
13080;BME280;6606;49.154;9.280;2023-02-12T14:25:43;101615.72;;;12.28;100.00
13080;BME280;6606;49.154;9.280;2023-02-12T14:28:31;101617.53;;;12.26;100.00
13080;BME280;6606;49.154;9.280;2023-02-12T14:31:33;101614.13;;;12.21;100.00
13080;BME280;6606;49.154;9.280;2023-02-12T14:34:47;101607.84;;;12.24;100.00
13080;BME280;6606;49.154;9.280;2023-02-12T14:37:36;101611.44;;;12.23;100.00
13080;BME280;6606;49.154;9.280;2023-02-12T14:40:38;101610.41;;;12.27;100.00
13080;BME280;6606;49.154;9.280;2023-02-12T14:43:32;101604.31;;;12.23;100.00
13080;BME280;6606;49.154;9.280;2023-02-12T14:46:46;101600.53;;;12.32;100.00